sensor_id;sensor_type;location;lat;lon;timestamp;pressure;altitude;pressure_sealevel;temperature;humidity
44138;BME280;29800;55.942;37.314;2023-05-23T00:02:01;99870.75;;;12.84;76.49
44138;BME280;29800;55.942;37.314;2023-05-23T00:04:33;99870.50;;;12.85;76.15
44138;BME280;29800;55.942;37.314;2023-05-23T00:07:02;99868.56;;;12.86;76.23
44138;BME280;29800;55.942;37.314;2023-05-23T00:09:29;99876.25;;;12.84;76.08
44138;BME280;29800;55.942;37.314;2023-05-23T00:11:55;99873.50;;;12.84;76.14
44138;BME280;29800;55.942;37.314;2023-05-23T00:14:22;99876.25;;;12.84;75.78
44138;BME280;29800;55.942;37.314;2023-05-23T00:16:48;99871.84;;;12.83;76.05
44138;BME280;29800;55.942;37.314;2023-05-23T00:19:15;99865.78;;;12.81;75.85
44138;BME280;29800;55.942;37.314;2023-05-23T00:21:42;99875.66;;;12.82;75.82
44138;BME280;29800;55.942;37.314;2023-05-23T00:24:09;99871.28;;;12.81;76.11
44138;BME280;29800;55.942;37.314;2023-05-23T00:26:35;99867.94;;;12.79;75.90
44138;BME280;29800;55.942;37.314;2023-05-23T00:29:02;99871.22;;;12.76;76.35
44138;BME280;29800;55.942;37.314;2023-05-23T00:31:29;99856.34;;;12.72;76.21
44138;BME280;29800;55.942;37.314;2023-05-23T00:33:56;99860.78;;;12.73;75.74
44138;BME280;29800;55.942;37.314;2023-05-23T00:36:22;99857.44;;;12.71;75.79
44138;BME280;29800;55.942;37.314;2023-05-23T00:38:49;99858.53;;;12.69;76.18
44138;BME280;29800;55.942;37.314;2023-05-23T00:41:16;99855.22;;;12.67;76.15
44138;BME280;29800;55.942;37.314;2023-05-23T00:43:46;99867.03;;;12.68;76.14
44138;BME280;29800;55.942;37.314;2023-05-23T00:46:13;99864.00;;;12.64;76.24
44138;BME280;29800;55.942;37.314;2023-05-23T00:48:39;99864.50;;;12.61;76.26
44138;BME280;29800;55.942;37.314;2023-05-23T00:51:06;99856.00;;;12.63;76.00
44138;BME280;29800;55.942;37.314;2023-05-23T00:53:32;99867.25;;;12.61;76.10
44138;BME280;29800;55.942;37.314;2023-05-23T00:55:59;99861.25;;;12.64;76.25
44138;BME280;29800;55.942;37.314;2023-05-23T00:58:27;99864.56;;;12.66;76.04
44138;BME280;29800;55.942;37.314;2023-05-23T01:00:53;99867.84;;;12.68;75.96
44138;BME280;29800;55.942;37.314;2023-05-23T01:03:20;99865.66;;;12.71;76.24
44138;BME280;29800;55.942;37.314;2023-05-23T01:05:48;99860.19;;;12.71;76.09
44138;BME280;29800;55.942;37.314;2023-05-23T01:08:14;99862.63;;;12.67;76.10
44138;BME280;29800;55.942;37.314;2023-05-23T01:10:41;99859.06;;;12.66;76.04
44138;BME280;29800;55.942;37.314;2023-05-23T01:20:58;99854.03;;;12.58;76.30
44138;BME280;29800;55.942;37.314;2023-05-23T01:26:45;99851.59;;;12.62;75.92
44138;BME280;29800;55.942;37.314;2023-05-23T01:29:28;99851.84;;;12.60;75.83
44138;BME280;29800;55.942;37.314;2023-05-23T01:31:58;99849.06;;;12.55;76.17
44138;BME280;29800;55.942;37.314;2023-05-23T01:34:25;99853.75;;;12.55;75.96
44138;BME280;29800;55.942;37.314;2023-05-23T01:36:55;99854.00;;;12.53;76.28
44138;BME280;29800;55.942;37.314;2023-05-23T01:39:22;99842.16;;;12.53;76.13
44138;BME280;29800;55.942;37.314;2023-05-23T01:41:50;99841.91;;;12.54;76.50
44138;BME280;29800;55.942;37.314;2023-05-23T01:44:19;99836.97;;;12.51;76.64
44138;BME280;29800;55.942;37.314;2023-05-23T01:46:47;99835.84;;;12.52;76.51
44138;BME280;29800;55.942;37.314;2023-05-23T01:49:15;99839.16;;;12.54;76.47
44138;BME280;29800;55.942;37.314;2023-05-23T01:51:43;99835.84;;;12.52;76.24
44138;BME280;29800;55.942;37.314;2023-05-23T01:54:12;99841.34;;;12.52;76.44
44138;BME280;29800;55.942;37.314;2023-05-23T01:56:39;99841.09;;;12.54;76.60
44138;BME280;29800;55.942;37.314;2023-05-23T01:59:06;99835.59;;;12.54;76.66
44138;BME280;29800;55.942;37.314;2023-05-23T02:01:33;99834.53;;;12.55;76.50
44138;BME280;29800;55.942;37.314;2023-05-23T02:03:59;99836.16;;;12.56;76.77
44138;BME280;29800;55.942;37.314;2023-05-23T02:06:26;99836.19;;;12.61;76.56
44138;BME280;29800;55.942;37.314;2023-05-23T02:08:52;99839.28;;;12.64;76.85
44138;BME280;29800;55.942;37.314;2023-05-23T02:11:18;99840.41;;;12.68;76.74
44138;BME280;29800;55.942;37.314;2023-05-23T02:13:44;99841.28;;;12.74;76.50
44138;BME280;29800;55.942;37.314;2023-05-23T02:16:10;99854.47;;;12.77;76.54
44138;BME280;29800;55.942;37.314;2023-05-23T02:18:38;99840.88;;;12.93;76.71
44138;BME280;29800;55.942;37.314;2023-05-23T02:21:05;99840.56;;;12.89;76.53
44138;BME280;29800;55.942;37.314;2023-05-23T02:23:31;99840.06;;;12.92;76.08
44138;BME280;29800;55.942;37.314;2023-05-23T02:25:57;99830.72;;;12.98;76.24
44138;BME280;29800;55.942;37.314;2023-05-23T02:28:24;99828.00;;;13.03;75.93
44138;BME280;29800;55.942;37.314;2023-05-23T02:30:50;99827.22;;;13.08;75.79
44138;BME280;29800;55.942;37.314;2023-05-23T02:33:16;99818.19;;;13.13;75.67
44138;BME280;29800;55.942;37.314;2023-05-23T02:35:43;99820.41;;;13.16;75.41
44138;BME280;29800;55.942;37.314;2023-05-23T02:38:10;99814.69;;;13.22;75.37
44138;BME280;29800;55.942;37.314;2023-05-23T02:40:40;99816.94;;;13.31;74.96
44138;BME280;29800;55.942;37.314;2023-05-23T02:43:06;99817.84;;;13.36;74.51
44138;BME280;29800;55.942;37.314;2023-05-23T02:45:32;99823.09;;;13.43;74.47
44138;BME280;29800;55.942;37.314;2023-05-23T02:47:59;99817.34;;;13.50;74.33
44138;BME280;29800;55.942;37.314;2023-05-23T02:50:25;99815.72;;;13.59;74.12
44138;BME280;29800;55.942;37.314;2023-05-23T02:52:51;99826.75;;;13.64;73.70
44138;BME280;29800;55.942;37.314;2023-05-23T02:55:18;99836.13;;;13.68;73.55
44138;BME280;29800;55.942;37.314;2023-05-23T02:57:47;99815.28;;;13.77;72.93
44138;BME280;29800;55.942;37.314;2023-05-23T03:00:13;99816.38;;;13.87;72.96
44138;BME280;29800;55.942;37.314;2023-05-23T03:02:43;99811.47;;;13.94;72.97
44138;BME280;29800;55.942;37.314;2023-05-23T03:05:09;99810.38;;;14.00;72.41
44138;BME280;29800;55.942;37.314;2023-05-23T03:07:35;99811.50;;;14.09;72.50
44138;BME280;29800;55.942;37.314;2023-05-23T03:10:01;99816.19;;;14.14;71.64
44138;BME280;29800;55.942;37.314;2023-05-23T03:12:30;99809.59;;;14.20;71.81
44138;BME280;29800;55.942;37.314;2023-05-23T03:14:56;99814.00;;;14.26;71.59
44138;BME280;29800;55.942;37.314;2023-05-23T03:17:24;99815.94;;;14.31;70.82
44138;BME280;29800;55.942;37.314;2023-05-23T03:19:51;99813.50;;;14.40;70.27
44138;BME280;29800;55.942;37.314;2023-05-23T03:22:18;99813.22;;;14.46;69.99
44138;BME280;29800;55.942;37.314;2023-05-23T03:24:45;99821.22;;;14.58;70.16
44138;BME280;29800;55.942;37.314;2023-05-23T03:27:11;99814.06;;;14.67;69.89
44138;BME280;29800;55.942;37.314;2023-05-23T03:29:38;99808.84;;;14.76;68.41
44138;BME280;29800;55.942;37.314;2023-05-23T03:32:05;99820.13;;;14.90;68.04
44138;BME280;29800;55.942;37.314;2023-05-23T03:34:31;99824.53;;;15.01;67.14
44138;BME280;29800;55.942;37.314;2023-05-23T03:36:59;99815.88;;;15.44;67.40
44138;BME280;29800;55.942;37.314;2023-05-23T03:39:25;99814.06;;;15.94;66.38
44138;BME280;29800;55.942;37.314;2023-05-23T03:41:52;99818.97;;;16.47;65.00
44138;BME280;29800;55.942;37.314;2023-05-23T03:44:18;99815.56;;;16.95;63.51
44138;BME280;29800;55.942;37.314;2023-05-23T03:46:45;99821.28;;;17.33;62.08
44138;BME280;29800;55.942;37.314;2023-05-23T03:49:11;99808.72;;;17.65;61.07
44138;BME280;29800;55.942;37.314;2023-05-23T03:51:37;99823.41;;;17.90;60.26
44138;BME280;29800;55.942;37.314;2023-05-23T03:54:04;99821.03;;;18.21;59.20
44138;BME280;29800;55.942;37.314;2023-05-23T03:56:30;99820.38;;;18.48;58.27
44138;BME280;29800;55.942;37.314;2023-05-23T03:58:57;99809.69;;;18.74;57.25
44138;BME280;29800;55.942;37.314;2023-05-23T04:01:23;99799.59;;;18.98;56.63
44138;BME280;29800;55.942;37.314;2023-05-23T04:03:50;99809.28;;;19.14;56.08
44138;BME280;29800;55.942;37.314;2023-05-23T04:06:18;99803.03;;;19.22;55.54
44138;BME280;29800;55.942;37.314;2023-05-23T04:08:45;99805.50;;;19.38;54.93
44138;BME280;29800;55.942;37.314;2023-05-23T04:11:11;99798.94;;;19.34;53.92
44138;BME280;29800;55.942;37.314;2023-05-23T04:13:40;99800.19;;;19.55;54.12
44138;BME280;29800;55.942;37.314;2023-05-23T04:16:09;99805.09;;;19.72;53.71
44138;BME280;29800;55.942;37.314;2023-05-23T04:18:35;99800.38;;;19.87;53.24
44138;BME280;29800;55.942;37.314;2023-05-23T04:21:05;99797.59;;;20.00;52.68
44138;BME280;29800;55.942;37.314;2023-05-23T04:23:36;99792.81;;;20.15;52.59
44138;BME280;29800;55.942;37.314;2023-05-23T04:26:03;99795.38;;;20.25;52.08
44138;BME280;29800;55.942;37.314;2023-05-23T04:28:35;99789.56;;;20.35;51.94
44138;BME280;29800;55.942;37.314;2023-05-23T04:31:03;99785.84;;;20.40;51.66
44138;BME280;29800;55.942;37.314;2023-05-23T04:33:33;99778.50;;;20.44;51.27
44138;BME280;29800;55.942;37.314;2023-05-23T04:36:03;99781.69;;;20.51;51.34
44138;BME280;29800;55.942;37.314;2023-05-23T04:38:30;99781.25;;;20.58;50.92
44138;BME280;29800;55.942;37.314;2023-05-23T04:40:57;99800.47;;;20.68;51.42
44138;BME280;29800;55.942;37.314;2023-05-23T04:43:59;99796.75;;;20.73;51.33
44138;BME280;29800;55.942;37.314;2023-05-23T04:46:38;99789.06;;;20.33;50.41
44138;BME280;29800;55.942;37.314;2023-05-23T04:49:15;99792.75;;;20.06;51.29
44138;BME280;29800;55.942;37.314;2023-05-23T04:51:42;99798.72;;;19.72;51.25
44138;BME280;29800;55.942;37.314;2023-05-23T04:54:23;99804.94;;;19.82;51.80
44138;BME280;29800;55.942;37.314;2023-05-23T04:56:49;99803.25;;;19.95;51.60
44138;BME280;29800;55.942;37.314;2023-05-23T04:59:18;99799.84;;;20.12;51.40
44138;BME280;29800;55.942;37.314;2023-05-23T05:01:44;99803.06;;;20.28;51.02
44138;BME280;29800;55.942;37.314;2023-05-23T05:04:12;99795.81;;;20.41;50.58
44138;BME280;29800;55.942;37.314;2023-05-23T05:06:39;99801.59;;;20.45;50.32
44138;BME280;29800;55.942;37.314;2023-05-23T05:09:07;99798.38;;;20.51;50.03
44138;BME280;29800;55.942;37.314;2023-05-23T05:11:35;99795.66;;;20.60;50.14
44138;BME280;29800;55.942;37.314;2023-05-23T05:14:02;99804.31;;;20.59;49.47
44138;BME280;29800;55.942;37.314;2023-05-23T05:16:28;99804.91;;;20.69;49.33
44138;BME280;29800;55.942;37.314;2023-05-23T05:18:54;99815.59;;;20.76;49.38
44138;BME280;29800;55.942;37.314;2023-05-23T05:21:21;99808.56;;;20.79;49.05
44138;BME280;29800;55.942;37.314;2023-05-23T05:23:48;99799.44;;;20.87;48.92
44138;BME280;29800;55.942;37.314;2023-05-23T05:26:16;99801.28;;;20.91;48.66
44138;BME280;29800;55.942;37.314;2023-05-23T05:28:43;99804.94;;;21.01;48.54
44138;BME280;29800;55.942;37.314;2023-05-23T05:31:09;99809.03;;;21.03;48.47
44138;BME280;29800;55.942;37.314;2023-05-23T05:33:40;99810.06;;;21.07;48.24
44138;BME280;29800;55.942;37.314;2023-05-23T05:36:15;99809.28;;;21.16;48.22
44138;BME280;29800;55.942;37.314;2023-05-23T05:38:43;99812.69;;;21.13;48.21
44138;BME280;29800;55.942;37.314;2023-05-23T05:41:10;99814.78;;;21.07;48.18
44138;BME280;29800;55.942;37.314;2023-05-23T05:43:41;99816.84;;;20.70;48.95
44138;BME280;29800;55.942;37.314;2023-05-23T05:46:08;99825.41;;;20.23;50.18
44138;BME280;29800;55.942;37.314;2023-05-23T05:48:36;99836.19;;;19.88;50.98
44138;BME280;29800;55.942;37.314;2023-05-23T05:51:06;99818.50;;;19.56;52.28
44138;BME280;29800;55.942;37.314;2023-05-23T05:53:33;99821.66;;;19.36;52.20
44138;BME280;29800;55.942;37.314;2023-05-23T05:56:01;99822.25;;;19.33;52.69
44138;BME280;29800;55.942;37.314;2023-05-23T05:58:28;99827.75;;;19.05;53.96
44138;BME280;29800;55.942;37.314;2023-05-23T06:01:00;99826.75;;;19.01;53.12
44138;BME280;29800;55.942;37.314;2023-05-23T06:03:27;99819.75;;;19.03;52.85
44138;BME280;29800;55.942;37.314;2023-05-23T06:05:54;99816.34;;;18.92;53.21
44138;BME280;29800;55.942;37.314;2023-05-23T06:08:21;99817.09;;;18.79;53.75
44138;BME280;29800;55.942;37.314;2023-05-23T06:10:48;99810.88;;;18.68;54.00
44138;BME280;29800;55.942;37.314;2023-05-23T06:13:16;99811.25;;;18.81;55.65
44138;BME280;29800;55.942;37.314;2023-05-23T06:15:46;99813.03;;;18.90;54.98
44138;BME280;29800;55.942;37.314;2023-05-23T06:18:13;99803.53;;;18.78;53.44
44138;BME280;29800;55.942;37.314;2023-05-23T06:20:39;99809.22;;;18.67;53.73
44138;BME280;29800;55.942;37.314;2023-05-23T06:23:10;99809.19;;;18.53;54.30
44138;BME280;29800;55.942;37.314;2023-05-23T06:25:38;99800.50;;;18.41;54.36
44138;BME280;29800;55.942;37.314;2023-05-23T06:28:05;99801.09;;;18.38;55.22
44138;BME280;29800;55.942;37.314;2023-05-23T06:30:32;99792.06;;;18.32;54.10
44138;BME280;29800;55.942;37.314;2023-05-23T06:33:01;99796.25;;;18.30;55.52
44138;BME280;29800;55.942;37.314;2023-05-23T06:35:28;99795.94;;;18.50;56.42
44138;BME280;29800;55.942;37.314;2023-05-23T06:37:54;99792.66;;;18.48;54.80
44138;BME280;29800;55.942;37.314;2023-05-23T06:40:20;99791.88;;;18.62;54.65
44138;BME280;29800;55.942;37.314;2023-05-23T06:42:47;99793.00;;;18.61;54.02
44138;BME280;29800;55.942;37.314;2023-05-23T06:45:22;99786.22;;;18.53;54.66
44138;BME280;29800;55.942;37.314;2023-05-23T06:47:49;99785.53;;;18.42;55.36
44138;BME280;29800;55.942;37.314;2023-05-23T06:50:17;99784.03;;;18.50;55.54
44138;BME280;29800;55.942;37.314;2023-05-23T06:52:48;99781.66;;;18.43;55.56
44138;BME280;29800;55.942;37.314;2023-05-23T06:55:15;99780.13;;;18.51;55.99
44138;BME280;29800;55.942;37.314;2023-05-23T06:57:45;99781.25;;;18.50;56.70
44138;BME280;29800;55.942;37.314;2023-05-23T07:00:13;99764.84;;;18.53;57.23
44138;BME280;29800;55.942;37.314;2023-05-23T07:02:50;99768.00;;;18.80;56.10
44138;BME280;29800;55.942;37.314;2023-05-23T07:05:19;99768.59;;;18.96;56.02
44138;BME280;29800;55.942;37.314;2023-05-23T07:07:49;99760.38;;;19.18;54.89
44138;BME280;29800;55.942;37.314;2023-05-23T07:10:16;99755.78;;;19.27;55.62
44138;BME280;29800;55.942;37.314;2023-05-23T07:12:46;99754.34;;;19.44;54.86
44138;BME280;29800;55.942;37.314;2023-05-23T07:15:14;99750.22;;;19.55;53.97
44138;BME280;29800;55.942;37.314;2023-05-23T07:17:52;99748.44;;;19.59;53.97
44138;BME280;29800;55.942;37.314;2023-05-23T07:20:19;99740.97;;;19.60;53.94
44138;BME280;29800;55.942;37.314;2023-05-23T07:22:49;99741.16;;;19.63;54.47
44138;BME280;29800;55.942;37.314;2023-05-23T07:25:17;99739.31;;;19.73;54.61
44138;BME280;29800;55.942;37.314;2023-05-23T07:27:44;99746.81;;;19.86;53.89
44138;BME280;29800;55.942;37.314;2023-05-23T07:30:10;99741.19;;;20.14;53.01
44138;BME280;29800;55.942;37.314;2023-05-23T07:32:37;99748.19;;;20.34;52.40
44138;BME280;29800;55.942;37.314;2023-05-23T07:35:13;99751.03;;;20.43;52.87
44138;BME280;29800;55.942;37.314;2023-05-23T07:37:39;99744.41;;;20.52;51.78
44138;BME280;29800;55.942;37.314;2023-05-23T07:40:06;99736.03;;;20.66;51.09
44138;BME280;29800;55.942;37.314;2023-05-23T07:42:34;99737.91;;;20.80;50.76
44138;BME280;29800;55.942;37.314;2023-05-23T07:45:00;99735.97;;;20.89;51.93
44138;BME280;29800;55.942;37.314;2023-05-23T07:47:30;99734.19;;;20.93;51.81
44138;BME280;29800;55.942;37.314;2023-05-23T07:49:56;99736.50;;;20.91;50.03
44138;BME280;29800;55.942;37.314;2023-05-23T07:52:24;99735.53;;;20.96;49.92
44138;BME280;29800;55.942;37.314;2023-05-23T07:54:50;99747.97;;;20.98;49.42
44138;BME280;29800;55.942;37.314;2023-05-23T07:57:16;99742.91;;;21.00;51.11
44138;BME280;29800;55.942;37.314;2023-05-23T07:59:43;99753.91;;;21.05;49.86
44138;BME280;29800;55.942;37.314;2023-05-23T08:02:10;99743.09;;;21.04;49.23
44138;BME280;29800;55.942;37.314;2023-05-23T08:04:38;99745.09;;;21.12;49.52
44138;BME280;29800;55.942;37.314;2023-05-23T08:07:05;99740.69;;;21.20;49.20
44138;BME280;29800;55.942;37.314;2023-05-23T08:09:43;99738.78;;;21.29;48.50
44138;BME280;29800;55.942;37.314;2023-05-23T08:12:13;99744.00;;;21.22;47.89
44138;BME280;29800;55.942;37.314;2023-05-23T08:14:39;99739.41;;;21.26;48.02
44138;BME280;29800;55.942;37.314;2023-05-23T08:17:17;99736.81;;;21.29;47.98
44138;BME280;29800;55.942;37.314;2023-05-23T08:19:45;99736.25;;;21.50;47.93
44138;BME280;29800;55.942;37.314;2023-05-23T08:22:11;99743.66;;;21.63;47.64
44138;BME280;29800;55.942;37.314;2023-05-23T08:24:37;99738.78;;;21.78;46.81
44138;BME280;29800;55.942;37.314;2023-05-23T08:27:04;99731.88;;;21.84;47.02
44138;BME280;29800;55.942;37.314;2023-05-23T08:29:33;99733.53;;;21.94;46.14
44138;BME280;29800;55.942;37.314;2023-05-23T08:32:01;99732.91;;;22.06;45.88
44138;BME280;29800;55.942;37.314;2023-05-23T08:34:28;99723.88;;;22.17;45.18
44138;BME280;29800;55.942;37.314;2023-05-23T08:36:54;99727.63;;;22.21;45.24
44138;BME280;29800;55.942;37.314;2023-05-23T08:39:21;99723.72;;;22.23;45.85
44138;BME280;29800;55.942;37.314;2023-05-23T08:41:56;99722.06;;;22.21;45.20
44138;BME280;29800;55.942;37.314;2023-05-23T08:44:23;99726.19;;;22.15;45.99
44138;BME280;29800;55.942;37.314;2023-05-23T08:46:55;99725.38;;;22.24;46.34
44138;BME280;29800;55.942;37.314;2023-05-23T08:49:55;99724.56;;;22.32;44.83
44138;BME280;29800;55.942;37.314;2023-05-23T08:52:26;99729.63;;;22.47;45.52
44138;BME280;29800;55.942;37.314;2023-05-23T08:54:58;99721.91;;;22.44;45.55
44138;BME280;29800;55.942;37.314;2023-05-23T08:57:26;99727.19;;;22.37;44.98
44138;BME280;29800;55.942;37.314;2023-05-23T09:00:00;99720.78;;;22.36;45.43
44138;BME280;29800;55.942;37.314;2023-05-23T09:02:31;99713.56;;;22.35;45.80
44138;BME280;29800;55.942;37.314;2023-05-23T09:05:09;99719.97;;;22.36;46.39
44138;BME280;29800;55.942;37.314;2023-05-23T09:07:36;99720.94;;;22.40;46.06
44138;BME280;29800;55.942;37.314;2023-05-23T09:10:05;99724.03;;;22.56;45.70
44138;BME280;29800;55.942;37.314;2023-05-23T09:12:33;99725.53;;;22.53;45.34
44138;BME280;29800;55.942;37.314;2023-05-23T09:15:04;99722.41;;;22.46;45.74
44138;BME280;29800;55.942;37.314;2023-05-23T09:17:31;99724.84;;;22.48;45.85
44138;BME280;29800;55.942;37.314;2023-05-23T09:19:59;99728.31;;;22.53;45.80
44138;BME280;29800;55.942;37.314;2023-05-23T09:22:45;99728.44;;;22.66;46.16
44138;BME280;29800;55.942;37.314;2023-05-23T09:25:15;99723.50;;;22.63;46.08
44138;BME280;29800;55.942;37.314;2023-05-23T09:27:43;99723.50;;;22.71;46.37
44138;BME280;29800;55.942;37.314;2023-05-23T09:30:10;99724.31;;;22.72;46.74
44138;BME280;29800;55.942;37.314;2023-05-23T09:32:38;99721.16;;;22.82;46.51
44138;BME280;29800;55.942;37.314;2023-05-23T09:35:06;99735.41;;;22.98;47.03
44138;BME280;29800;55.942;37.314;2023-05-23T09:37:38;99728.16;;;23.15;45.37
44138;BME280;29800;55.942;37.314;2023-05-23T09:40:11;99726.69;;;23.17;46.21
44138;BME280;29800;55.942;37.314;2023-05-23T09:42:45;99731.28;;;23.13;46.14
44138;BME280;29800;55.942;37.314;2023-05-23T09:45:13;99738.03;;;23.12;45.71
44138;BME280;29800;55.942;37.314;2023-05-23T09:47:48;99727.50;;;23.18;47.06
44138;BME280;29800;55.942;37.314;2023-05-23T09:50:16;99732.25;;;23.17;46.81
44138;BME280;29800;55.942;37.314;2023-05-23T09:52:43;99736.84;;;23.13;46.29
44138;BME280;29800;55.942;37.314;2023-05-23T09:55:10;99736.38;;;23.02;46.27
44138;BME280;29800;55.942;37.314;2023-05-23T09:57:40;99739.31;;;23.06;46.13
44138;BME280;29800;55.942;37.314;2023-05-23T10:00:11;99737.38;;;22.98;46.67
44138;BME280;29800;55.942;37.314;2023-05-23T10:03:12;99734.06;;;23.13;46.68
44138;BME280;29800;55.942;37.314;2023-05-23T10:05:46;99745.41;;;23.08;46.04
44138;BME280;29800;55.942;37.314;2023-05-23T10:08:26;99738.19;;;23.07;46.27
44138;BME280;29800;55.942;37.314;2023-05-23T10:13:26;99741.97;;;23.02;47.03
44138;BME280;29800;55.942;37.314;2023-05-23T10:15:59;99739.66;;;23.04;46.91
44138;BME280;29800;55.942;37.314;2023-05-23T10:18:34;99749.88;;;22.91;48.39
44138;BME280;29800;55.942;37.314;2023-05-23T10:21:10;99750.72;;;22.83;48.20
44138;BME280;29800;55.942;37.314;2023-05-23T10:23:38;99753.69;;;22.78;48.40
44138;BME280;29800;55.942;37.314;2023-05-23T10:26:05;99745.16;;;22.74;48.13
44138;BME280;29800;55.942;37.314;2023-05-23T10:28:32;99756.97;;;22.80;48.15
44138;BME280;29800;55.942;37.314;2023-05-23T10:30:59;99765.03;;;22.64;48.88
44138;BME280;29800;55.942;37.314;2023-05-23T10:33:26;99766.53;;;22.44;48.63
44138;BME280;29800;55.942;37.314;2023-05-23T10:36:08;99773.56;;;22.24;48.88
44138;BME280;29800;55.942;37.314;2023-05-23T10:38:50;99770.44;;;22.08;49.77
44138;BME280;29800;55.942;37.314;2023-05-23T10:41:58;99777.28;;;21.93;50.39
44138;BME280;29800;55.942;37.314;2023-05-23T10:44:30;99781.91;;;22.07;49.75
44138;BME280;29800;55.942;37.314;2023-05-23T10:46:57;99772.22;;;21.95;50.66
44138;BME280;29800;55.942;37.314;2023-05-23T10:49:50;99779.06;;;21.80;51.42
44138;BME280;29800;55.942;37.314;2023-05-23T10:52:17;99775.63;;;21.83;50.83
44138;BME280;29800;55.942;37.314;2023-05-23T10:54:49;99772.84;;;21.75;50.90
44138;BME280;29800;55.942;37.314;2023-05-23T10:57:18;99773.97;;;21.65;52.35
44138;BME280;29800;55.942;37.314;2023-05-23T10:59:45;99778.09;;;21.76;51.25
44138;BME280;29800;55.942;37.314;2023-05-23T11:02:17;99769.41;;;21.78;51.36
44138;BME280;29800;55.942;37.314;2023-05-23T11:04:44;99771.66;;;21.58;52.05
44138;BME280;29800;55.942;37.314;2023-05-23T11:07:30;99774.50;;;21.44;52.47
44138;BME280;29800;55.942;37.314;2023-05-23T11:10:10;99770.19;;;21.21;53.47
44138;BME280;29800;55.942;37.314;2023-05-23T11:12:40;99768.53;;;21.20;53.29
44138;BME280;29800;55.942;37.314;2023-05-23T11:17:53;99766.78;;;20.92;55.49
44138;BME280;29800;55.942;37.314;2023-05-23T11:20:22;99768.25;;;20.67;56.71
44138;BME280;29800;55.942;37.314;2023-05-23T11:22:54;99768.09;;;20.50;57.49
44138;BME280;29800;55.942;37.314;2023-05-23T11:25:38;99774.31;;;20.69;56.84
44138;BME280;29800;55.942;37.314;2023-05-23T11:28:06;99778.38;;;20.49;57.62
44138;BME280;29800;55.942;37.314;2023-05-23T11:30:34;99766.44;;;20.49;57.42
44138;BME280;29800;55.942;37.314;2023-05-23T11:33:09;99770.34;;;20.48;58.26
44138;BME280;29800;55.942;37.314;2023-05-23T11:35:46;99769.63;;;20.33;60.23
44138;BME280;29800;55.942;37.314;2023-05-23T11:38:14;99781.47;;;20.48;58.64
44138;BME280;29800;55.942;37.314;2023-05-23T11:40:42;99779.66;;;20.43;59.76
44138;BME280;29800;55.942;37.314;2023-05-23T11:43:12;99785.00;;;20.17;62.39
44138;BME280;29800;55.942;37.314;2023-05-23T11:45:39;99776.38;;;20.05;63.08
44138;BME280;29800;55.942;37.314;2023-05-23T11:48:10;99782.47;;;19.93;64.19
44138;BME280;29800;55.942;37.314;2023-05-23T11:50:55;99778.78;;;19.83;64.56
44138;BME280;29800;55.942;37.314;2023-05-23T11:53:22;99776.75;;;19.61;65.77
44138;BME280;29800;55.942;37.314;2023-05-23T11:55:51;99774.47;;;19.63;65.12
44138;BME280;29800;55.942;37.314;2023-05-23T11:58:29;99784.97;;;19.39;66.89
44138;BME280;29800;55.942;37.314;2023-05-23T12:01:09;99792.88;;;19.32;68.17
44138;BME280;29800;55.942;37.314;2023-05-23T12:03:46;99786.28;;;19.27;68.00
44138;BME280;29800;55.942;37.314;2023-05-23T12:06:17;99800.16;;;19.14;68.40
44138;BME280;29800;55.942;37.314;2023-05-23T12:08:46;99796.75;;;19.03;69.07
44138;BME280;29800;55.942;37.314;2023-05-23T12:11:12;99796.94;;;18.92;70.10
44138;BME280;29800;55.942;37.314;2023-05-23T12:13:40;99792.91;;;18.85;70.64
44138;BME280;29800;55.942;37.314;2023-05-23T12:16:07;99788.91;;;18.72;71.67
44138;BME280;29800;55.942;37.314;2023-05-23T12:18:36;99786.03;;;18.63;72.15
44138;BME280;29800;55.942;37.314;2023-05-23T12:21:04;99790.91;;;18.52;72.96
44138;BME280;29800;55.942;37.314;2023-05-23T12:23:33;99789.38;;;18.46;73.19
44138;BME280;29800;55.942;37.314;2023-05-23T12:26:03;99786.94;;;18.40;73.72
44138;BME280;29800;55.942;37.314;2023-05-23T12:28:39;99783.66;;;18.37;74.13
44138;BME280;29800;55.942;37.314;2023-05-23T12:31:19;99782.09;;;18.31;74.17
44138;BME280;29800;55.942;37.314;2023-05-23T12:33:47;99775.81;;;18.26;75.11
44138;BME280;29800;55.942;37.314;2023-05-23T12:36:15;99768.63;;;18.25;74.69
44138;BME280;29800;55.942;37.314;2023-05-23T12:38:46;99767.97;;;18.14;74.75
44138;BME280;29800;55.942;37.314;2023-05-23T12:41:18;99763.84;;;18.11;75.49
44138;BME280;29800;55.942;37.314;2023-05-23T12:43:53;99769.16;;;18.08;75.69
44138;BME280;29800;55.942;37.314;2023-05-23T12:46:22;99762.56;;;18.04;76.17
44138;BME280;29800;55.942;37.314;2023-05-23T12:48:49;99759.28;;;18.02;76.40
44138;BME280;29800;55.942;37.314;2023-05-23T12:51:16;99760.63;;;18.04;76.57
44138;BME280;29800;55.942;37.314;2023-05-23T12:53:43;99762.88;;;18.02;76.90
44138;BME280;29800;55.942;37.314;2023-05-23T12:56:10;99752.31;;;18.04;76.92
44138;BME280;29800;55.942;37.314;2023-05-23T12:58:36;99761.38;;;18.10;76.68
44138;BME280;29800;55.942;37.314;2023-05-23T13:01:03;99756.03;;;18.13;76.74
44138;BME280;29800;55.942;37.314;2023-05-23T13:03:29;99758.50;;;18.15;77.03
44138;BME280;29800;55.942;37.314;2023-05-23T13:05:56;99758.69;;;18.24;76.97
44138;BME280;29800;55.942;37.314;2023-05-23T13:08:23;99760.22;;;18.30;76.91
44138;BME280;29800;55.942;37.314;2023-05-23T13:10:52;99759.03;;;18.36;77.29
44138;BME280;29800;55.942;37.314;2023-05-23T13:13:18;99756.47;;;18.40;76.46
44138;BME280;29800;55.942;37.314;2023-05-23T13:15:45;99751.69;;;18.45;76.10
44138;BME280;29800;55.942;37.314;2023-05-23T13:18:11;99760.22;;;18.49;76.10